• Join FlightAware (Why Join?)
  • Login
  • US Flag 
04:36PM EST


 

Airport Tracker/Info


-or-


 

Live Flight TrackerFlight Track Log ✈ CTL312 ✈ 24-Apr-2013 ✈ KBKL - KHAO

Flight Track Log - Related Links

Times and Time Zones

All times are in EDT time to prevent confusion due to time zone crossing. See the CTL312 flight status page for this flight to view local times or setup timezone preferences in your user account.

Time Position Orientation Groundspeed Altitude Reporting Facility
EDT Latitude Longitude Course Direction KTS MPH feet Rate Location/Type
06:37PM 41.5167 -81.7061 313° West 104 120 1,200  Level Cleveland Center
06:38PM 41.5228 -81.7147 313° West 108 124 1,600 1,367 Climbing Cleveland Center
06:39PM 41.5414 -81.7456 309° West 107 123 3,000 1,279 Climbing Cleveland Center
06:40PM 41.5536 -81.7764 298° West 109 125 4,200 1,134 Climbing Cleveland Center
06:41PM 41.5633 -81.8208 286° West 113 130 5,400 939 Climbing Cleveland Center
06:42PM 41.5714 -81.8572 286° West 123 142 6,000 330 Climbing Cleveland Center
06:43PM 41.5792 -81.9100 281° West 155 178 6,000  Level Cleveland Center
06:44PM 41.5475 -81.9508 224° Southwest 173 199 6,000  Level Cleveland Center
06:45PM 41.5114 -81.9944 222° Southwest 163 188 6,000 50 Level Cleveland Center
06:46PM 41.4775 -82.0325 220° Southwest 162 186 6,100  Climbing Cleveland Center
06:48PM 41.4206 -82.1028 223° Southwest 161 185 6,000  Descending Indianapolis Center
06:49PM 41.3869 -82.1439 223° Southwest 162 186 6,100 48 Climbing Indianapolis Center
06:50PM 41.3542 -82.1847 223° Southwest 161 185 6,100  Level Indianapolis Center
06:51PM 41.3217 -82.2261 224° Southwest 161 185 6,100 -48 Level Indianapolis Center
06:52PM 41.2894 -82.2700 226° Southwest 162 186 6,000 -48 Descending Indianapolis Center
06:53PM 41.2561 -82.3122 224° Southwest 164 189 6,000 -48 Level Indianapolis Center
06:54PM 41.2161 -82.3611 223° Southwest 165 190 5,900  Descending Indianapolis Center
06:55PM 41.1797 -82.4025 221° Southwest 170 196 6,000 48 Climbing Indianapolis Center
06:56PM 41.1450 -82.4464 224° Southwest 169 194 6,000  Level Indianapolis Center
06:57PM 41.1122 -82.4900 225° Southwest 167 192 6,000  Level Indianapolis Center
06:58PM 41.0775 -82.5322 223° Southwest 167 192 6,000  Level Indianapolis Center
06:59PM 41.0419 -82.5739 221° Southwest 169 194 6,000  Level Indianapolis Center
07:00PM 41.0064 -82.6139 220° Southwest 168 193 6,000  Level Indianapolis Center
07:01PM 40.9714 -82.6558 222° Southwest 168 193 6,000  Level Indianapolis Center
07:02PM 40.9286 -82.7036 220° Southwest 172 198 6,000  Level Indianapolis Center
07:03PM 40.8917 -82.7450 220° Southwest 172 198 6,000  Level Indianapolis Center
07:04PM 40.8556 -82.7869 221° Southwest 172 198 6,000  Level Indianapolis Center
07:05PM 40.8208 -82.8325 225° Southwest 173 199 6,000  Level Indianapolis Center
07:06PM 40.7836 -82.8742 220° Southwest 174 200 6,000  Level Indianapolis Center
07:07PM 40.7478 -82.9178 223° Southwest 176 203 6,000 -48 Level Indianapolis Center
07:08PM 40.7117 -82.9619 223° Southwest 175 201 5,900 -48 Descending Indianapolis Center
07:09PM 40.6756 -83.0056 222° Southwest 175 201 5,900 48 Level Indianapolis Center
07:10PM 40.6344 -83.0589 225° Southwest 175 201 6,000  Climbing Indianapolis Center
07:11PM 40.5983 -83.1028 223° Southwest 175 201 5,900 -49 Descending Indianapolis Center
07:12PM 40.5619 -83.1453 222° Southwest 175 201 5,900  Level Indianapolis Center
07:13PM 40.5275 -83.1822 219° Southwest 173 199 5,900 48 Level Indianapolis Center
07:14PM 40.4931 -83.2233 222° Southwest 168 193 6,000  Climbing Indianapolis Center
07:15PM 40.4644 -83.2564 221° Southwest 165 190 5,900  Descending Indianapolis Center
07:15PM 40.4519 -83.2697 219° Southwest 166 191 6,000  Climbing Indianapolis Center
07:16PM 40.4278 -83.2986 222° Southwest 169 194 5,900  Descending Indianapolis Center
07:16PM 40.4169 -83.3111 221° Southwest 167 192 6,000  Climbing Indianapolis Center
07:17PM 40.3808 -83.3511 220° Southwest 168 193 5,900 -57 Descending Indianapolis Center
07:18PM 40.3528 -83.3853 223° Southwest 173 199 5,900 97 Level Indianapolis Center
07:18PM 40.3447 -83.3939 219° Southwest 173 199 6,000  Climbing Indianapolis Center
07:19PM 40.3208 -83.4225 222° Southwest 175 201 5,900  Descending Indianapolis Center
07:19PM 40.3086 -83.4378 224° Southwest 174 200 6,000 -76 Climbing Indianapolis Center
07:20PM 40.2725 -83.4822 223° Southwest 176 203 5,800 -117 Descending Indianapolis Center
07:21PM 40.2469 -83.5172 226° Southwest 171 197 5,800 86 Level Indianapolis Center
07:22PM 40.2392 -83.5267 223° Southwest 174 200 5,900 90 Climbing Indianapolis Center
07:22PM 40.2100 -83.5647 225° Southwest 171 197 5,900 97 Level Indianapolis Center
07:23PM 40.2061 -83.5708 230° Southwest 171 197 6,000 100 Climbing Indianapolis Center
07:23PM 40.1750 -83.6122 225° Southwest 170 196 6,000  Level Indianapolis Center
07:24PM 40.1658 -83.6217 218° Southwest 171 197 6,000  Level Indianapolis Center
07:25PM 40.1328 -83.6650 225° Southwest 169 194 6,000  Level Indianapolis Center
07:25PM 40.1058 -83.6992 224° Southwest 167 192 6,000 -55 Level Indianapolis Center
07:26PM 40.0714 -83.7411 223° Southwest 167 192 5,900  Descending Indianapolis Center
07:27PM 40.0372 -83.7750 217° Southwest 165 190 6,000 79 Climbing Indianapolis Center
07:28PM 40.0289 -83.7867 227° Southwest 166 191 6,000  Level Indianapolis Center
07:28PM 40.0031 -83.8142 219° Southwest 165 190 6,000  Level Indianapolis Center
07:29PM 39.9939 -83.8261 225° Southwest 166 191 6,000  Level Indianapolis Center
07:29PM 39.9639 -83.8608 222° Southwest 168 193 6,000  Level Indianapolis Center
07:30PM 39.9589 -83.8669 223° Southwest 166 191 6,000  Level Indianapolis Center
07:30PM 39.9314 -83.9003 223° Southwest 168 193 6,000  Level Indianapolis Center
07:31PM 39.9239 -83.9072 215° Southwest 167 192 6,000 -197 Level Indianapolis Center
07:31PM 39.8972 -83.9394 223° Southwest 165 190 5,800 -492 Descending Indianapolis Center
07:32PM 39.8828 -83.9544 219° Southwest 168 193 5,500 -600 Descending Indianapolis Center
07:32PM 39.8603 -83.9808 222° Southwest 178 205 5,200 -581 Descending Indianapolis Center
07:33PM 39.8456 -83.9972 221° Southwest 172 198 4,900 -689 Descending Indianapolis Center
07:33PM 39.8217 -84.0222 219° Southwest 177 204 4,500 -677 Descending Indianapolis Center
07:34PM 39.8067 -84.0389 220° Southwest 177 204 4,200 -400 Descending Indianapolis Center
07:34PM 39.7869 -84.0639 224° Southwest 168 193 4,100 -197 Descending Indianapolis Center
07:35PM 39.7708 -84.0792 216° Southwest 174 200 4,000 -122 Descending Indianapolis Center
07:35PM 39.7575 -84.0925 218° Southwest 165 190 4,000  Level Indianapolis Center
07:36PM 39.7361 -84.1156 220° Southwest 166 191 4,000  Level Indianapolis Center
07:37PM 39.7019 -84.1503 218° Southwest 159 183 4,000  Level Indianapolis Center
07:38PM 39.6689 -84.1847 219° Southwest 155 178 4,000  Level Indianapolis Center
07:39PM 39.6361 -84.2233 222° Southwest 155 178 4,000  Level Indianapolis Center
07:40PM 39.6019 -84.2608 220° Southwest 158 182 4,000  Level Indianapolis Center
07:41PM 39.5606 -84.3033 218° Southwest 160 184 4,000 -439 Level Indianapolis Center
07:42PM 39.5225 -84.3408 217° Southwest 164 189 3,100 -629 Descending Indianapolis Center
07:43PM 39.4894 -84.3722 216° Southwest 171 197 2,700 -387 Descending Indianapolis Center
07:45PM 39.4418 -84.4241 220° Southwest  Level FlightAware Approximate
07:52PM 39.3638 -84.5219 218° Southwest  Level Estimated
07:53PM 39.3638 -84.5219 218° Southwest  Level Estimated
07:54PM 39.3638 -84.5219 218° Southwest  Level Estimated
07:55PM 39.3638 -84.5219 218° Southwest  Level Estimated
07:56PM 39.3638 -84.5219 218° Southwest  Level Estimated
07:57PM 39.3638 -84.5219 218° Southwest  Level Estimated